Terminal Aerodrome Forecast
Issued by NWS

Home | Current Version | Previous Version | Text Only | Print | Product List | Glossary Off
Versions: 1 2 3 4 5 6 7 8 9 10 11 12 13 14 15 16 17 18 19 20 21 22 23 24

522
FTUS43 KBIS 102353 AAA
TAFMOT
TAF AMD
KMOT 102353Z 1100/1124 27012KT P6SM OVC080 WS020/32035KT
     FM110300 27019G28KT P6SM BKN090 WS020/30045KT
     FM110600 29024G34KT 5SM -SN VCSH OVC025
     FM111000 30023G32KT P6SM VCSH OVC015
     FM111600 33016G22KT P6SM OVC020=

USA.gov is the U.S. government's official web portal to all federal, state and local government web resources and services.